Time;durP1;ratioP1;P1;durP2;ratioP2;P2;SDS_P1;SDS_P2;PMS_P1;PMS_P2;Temp;Humidity;BMP_temperature;BMP_pressure;BME280_temperature;BME280_humidity;BME280_pressure;Samples;Min_cycle;Max_cycle;Signal;HPM_P1;HPM_P2
2022/10/05 00:00:22;;;;;;;3.55;1.63;;;15.50;99.90;;;;;;4970731;28;20052;-75
2022/10/05 00:02:51;;;;;;;2.25;1.38;;;15.50;99.90;;;;;;4998042;28;20053;-74
2022/10/05 00:05:32;;;;;;;3.08;2.10;;;15.50;99.90;;;;;;4999147;28;20045;-75
2022/10/05 00:08:11;;;;;;;2.63;1.77;;;15.50;99.90;;;;;;4996898;28;20404;-74
2022/10/05 00:10:42;;;;;;;2.30;1.55;;;15.50;99.90;;;;;;5000264;28;20463;-74
2022/10/05 00:13:29;;;;;;;4.63;2.20;;;15.50;99.90;;;;;;4998833;28;20042;-74
2022/10/05 00:16:10;;;;;;;2.70;1.70;;;15.50;99.90;;;;;;4998841;28;20045;-74
2022/10/05 00:18:38;;;;;;;3.42;1.88;;;15.40;99.90;;;;;;4998541;28;20377;-74
2022/10/05 00:21:25;;;;;;;5.47;2.65;;;15.40;99.90;;;;;;4998855;28;20048;-74
2022/10/05 00:23:55;;;;;;;4.22;2.40;;;15.40;99.90;;;;;;4999503;28;20034;-74
2022/10/05 00:26:24;;;;;;;4.05;2.10;;;15.40;99.90;;;;;;5000326;28;20500;-75
2022/10/05 00:28:52;;;;;;;5.57;2.75;;;15.30;99.90;;;;;;4997715;28;20038;-74
2022/10/05 00:31:19;;;;;;;5.28;2.50;;;15.40;99.90;;;;;;4998698;28;20629;-74
2022/10/05 00:33:46;;;;;;;2.30;1.50;;;15.30;99.90;;;;;;4998552;28;20037;-75
2022/10/05 00:36:13;;;;;;;2.95;2.00;;;15.30;99.90;;;;;;4998159;28;20041;-74
2022/10/05 00:38:40;;;;;;;4.03;2.17;;;15.30;99.90;;;;;;4997392;28;20045;-74
2022/10/05 00:41:12;;;;;;;4.45;2.67;;;15.30;99.90;;;;;;4986097;28;20036;-73
2022/10/05 00:43:48;;;;;;;3.78;2.60;;;15.30;99.90;;;;;;4999862;28;20038;-73
2022/10/05 00:46:26;;;;;;;2.35;1.10;;;15.30;99.90;;;;;;4998506;28;20440;-74
2022/10/05 00:49:20;;;;;;;2.80;1.45;;;15.30;99.90;;;;;;4995831;28;20038;-75
2022/10/05 00:52:19;;;;;;;2.42;1.52;;;15.30;99.90;;;;;;4999732;28;20034;-75
2022/10/05 00:55:06;;;;;;;3.40;1.88;;;15.30;99.90;;;;;;4997581;28;20049;-75
2022/10/05 00:57:58;;;;;;;3.67;1.70;;;15.30;99.90;;;;;;4996934;28;20551;-74
2022/10/05 01:00:26;;;;;;;4.40;2.67;;;15.30;99.90;;;;;;5014058;28;20064;-75
2022/10/05 01:02:58;;;;;;;3.10;1.60;;;15.30;99.90;;;;;;4999085;28;20064;-75
2022/10/05 01:05:52;;;;;;;2.50;1.58;;;15.30;99.90;;;;;;5003465;28;20861;-74
2022/10/05 01:08:30;;;;;;;2.20;1.17;;;15.30;99.90;;;;;;4995101;28;20033;-74
2022/10/05 01:11:07;;;;;;;2.10;1.10;;;15.30;99.90;;;;;;4998081;28;20066;-75
2022/10/05 01:14:03;;;;;;;2.35;1.40;;;15.30;99.90;;;;;;5013709;28;20392;-74
2022/10/05 01:17:04;;;;;;;5.28;3.38;;;15.30;99.90;;;;;;4981416;28;20046;-74
2022/10/05 01:19:59;;;;;;;2.63;2.25;;;15.30;99.90;;;;;;4994239;28;20061;-74
2022/10/05 01:22:41;;;;;;;2.20;1.40;;;15.30;99.90;;;;;;4999391;28;20030;-74
2022/10/05 01:25:14;;;;;;;3.58;2.50;;;15.30;99.90;;;;;;4965676;28;20038;-74
2022/10/05 01:27:46;;;;;;;;;;;15.30;99.90;;;;;;4996692;28;20092;-74
2022/10/05 01:30:19;;;;;;;3.95;2.47;;;15.20;99.90;;;;;;5013383;28;19917;-74
2022/10/05 01:32:49;;;;;;;;;;;15.20;99.90;;;;;;5013021;28;20038;-75
2022/10/05 01:35:24;;;;;;;3.08;2.08;;;15.20;99.90;;;;;;5014118;28;19928;-75
2022/10/05 01:37:59;;;;;;;4.95;2.20;;;15.20;99.90;;;;;;5011426;28;20045;-74
2022/10/05 01:40:47;;;;;;;3.83;2.25;;;15.10;99.90;;;;;;4997609;28;20468;-74
2022/10/05 01:43:42;;;;;;;4.90;3.08;;;15.10;99.90;;;;;;4998805;28;20338;-74
2022/10/05 01:46:23;;;;;;;2.88;2.28;;;15.10;99.90;;;;;;5001590;28;20037;-74
2022/10/05 01:48:49;;;;;;;4.13;2.67;;;15.20;99.90;;;;;;4998782;28;20046;-74
2022/10/05 01:51:32;;;;;;;3.53;2.78;;;15.10;99.90;;;;;;5001243;28;20559;-75
2022/10/05 01:54:36;;;;;;;4.40;2.97;;;15.20;99.90;;;;;;5001724;28;20041;-75
2022/10/05 01:57:22;;;;;;;5.22;1.67;;;15.20;99.90;;;;;;5001825;28;20511;-74
2022/10/05 02:00:11;;;;;;;5.80;3.92;;;15.20;99.90;;;;;;5015768;28;20049;-75
2022/10/05 02:02:50;;;;;;;3.60;2.50;;;15.20;99.90;;;;;;5002315;28;20045;-74
2022/10/05 02:05:36;;;;;;;5.90;2.88;;;15.20;99.90;;;;;;5000531;28;20421;-75
2022/10/05 02:08:10;;;;;;;5.65;4.18;;;15.20;99.90;;;;;;4999249;28;20038;-74
2022/10/05 02:10:46;;;;;;;4.72;3.50;;;15.10;99.90;;;;;;5001238;28;20044;-74
2022/10/05 02:13:57;;;;;;;6.72;3.80;;;15.00;99.90;;;;;;4999929;28;20042;-74
2022/10/05 02:16:33;;;;;;;3.72;2.53;;;15.00;99.90;;;;;;5017377;28;20038;-74
2022/10/05 02:19:17;;;;;;;4.95;3.30;;;14.90;99.90;;;;;;4998493;28;20208;-75
2022/10/05 02:21:48;;;;;;;5.85;3.25;;;14.90;99.90;;;;;;5018138;28;20046;-74
2022/10/05 02:24:28;;;;;;;3.67;2.05;;;14.80;99.90;;;;;;5003869;28;20276;-75
2022/10/05 02:26:56;;;;;;;3.95;2.70;;;14.80;99.90;;;;;;4984947;28;20045;-75
2022/10/05 02:29:29;;;;;;;3.47;2.55;;;14.80;99.90;;;;;;5002201;28;21162;-75
2022/10/05 02:32:02;;;;;;;4.35;2.38;;;14.80;99.90;;;;;;4985292;28;20129;-74
2022/10/05 02:34:36;;;;;;;4.85;3.10;;;14.70;99.90;;;;;;5002618;28;20042;-73
2022/10/05 02:37:24;;;;;;;7.05;4.45;;;14.70;99.90;;;;;;4994014;28;20068;-74
2022/10/05 02:40:09;;;;;;;5.57;3.63;;;14.70;99.90;;;;;;4978252;28;20383;-75
2022/10/05 02:42:36;;;;;;;3.83;2.53;;;14.70;99.90;;;;;;5000998;28;20393;-74
2022/10/05 02:45:08;;;;;;;4.70;3.45;;;14.60;99.90;;;;;;4983879;28;20057;-75
2022/10/05 02:47:49;;;;;;;4.22;3.10;;;14.60;99.90;;;;;;4999026;28;20038;-75
2022/10/05 02:50:33;;;;;;;6.10;3.95;;;14.50;99.90;;;;;;4999484;28;20037;-74
2022/10/05 02:53:07;;;;;;;5.03;3.88;;;14.50;99.90;;;;;;5003574;28;20559;-75
2022/10/05 02:55:52;;;;;;;7.15;4.57;;;14.40;99.90;;;;;;5000617;28;20041;-74
2022/10/05 02:58:29;;;;;;;4.65;3.40;;;14.40;99.90;;;;;;4997604;28;20026;-75
2022/10/05 03:01:15;;;;;;;5.60;3.85;;;14.40;99.90;;;;;;4984144;28;20062;-75
2022/10/05 03:04:04;;;;;;;4.07;3.65;;;14.50;99.90;;;;;;5000146;28;20507;-75
2022/10/05 03:06:38;;;;;;;5.63;4.28;;;14.40;99.90;;;;;;5001900;28;20045;-76
2022/10/05 03:09:07;;;;;;;5.32;4.22;;;14.40;99.90;;;;;;5014152;28;20484;-74
2022/10/05 03:11:47;;;;;;;7.60;5.13;;;14.40;99.90;;;;;;5016344;28;20042;-74
2022/10/05 03:14:22;;;;;;;6.43;3.92;;;14.40;99.90;;;;;;5016145;28;20458;-74
2022/10/05 03:17:19;;;;;;;5.63;4.03;;;14.40;99.90;;;;;;4983027;28;20407;-74
2022/10/05 03:20:23;;;;;;;7.53;4.32;;;14.40;99.90;;;;;;4998531;28;20378;-75
2022/10/05 03:22:57;;;;;;;6.32;5.10;;;14.40;99.90;;;;;;5015757;28;20485;-74
2022/10/05 03:25:48;;;;;;;4.35;3.85;;;14.40;99.90;;;;;;4985513;28;20044;-75
2022/10/05 03:28:38;;;;;;;6.75;4.68;;;14.50;99.90;;;;;;4998723;28;20129;-75
2022/10/05 03:31:19;;;;;;;5.40;4.13;;;14.50;99.90;;;;;;5000531;28;20623;-74
2022/10/05 03:34:06;;;;;;;7.75;6.32;;;14.50;99.90;;;;;;5015969;28;20279;-75
2022/10/05 03:36:48;;;;;;;5.80;4.53;;;14.50;99.90;;;;;;5016555;28;20042;-75
2022/10/05 03:39:43;;;;;;;8.77;5.07;;;14.60;99.90;;;;;;4981820;28;20045;-74
2022/10/05 03:42:28;;;;;;;8.23;4.90;;;14.60;99.90;;;;;;4985469;28;20038;-74
2022/10/05 03:45:09;;;;;;;8.85;5.13;;;14.60;99.90;;;;;;5014908;28;20038;-75
2022/10/05 03:47:48;;;;;;;4.47;3.50;;;14.60;99.90;;;;;;5014833;28;20504;-75
2022/10/05 03:50:35;;;;;;;9.65;6.13;;;14.60;99.90;;;;;;4998126;28;20511;-74
2022/10/05 03:53:09;;;;;;;5.97;5.03;;;14.70;99.90;;;;;;4999158;28;20057;-75
2022/10/05 03:55:47;;;;;;;8.05;5.20;;;14.70;99.90;;;;;;4983372;28;20389;-73
2022/10/05 03:58:20;;;;;;;4.53;3.75;;;14.60;99.90;;;;;;4999532;28;20033;-74
2022/10/05 04:00:52;;;;;;;10.40;7.38;;;14.70;99.90;;;;;;4997963;28;20058;-75
2022/10/05 04:03:25;;;;;;;5.30;4.55;;;14.70;99.90;;;;;;4997811;28;20033;-75
2022/10/05 04:06:02;;;;;;;6.65;4.47;;;14.70;99.90;;;;;;4982234;28;20052;-74
2022/10/05 04:08:50;;;;;;;10.38;5.53;;;14.80;99.90;;;;;;4996237;28;20042;-74
2022/10/05 04:11:26;;;;;;;5.78;4.55;;;14.80;99.90;;;;;;4981629;28;20274;-74
2022/10/05 04:13:59;;;;;;;5.72;4.35;;;14.80;99.90;;;;;;4999061;28;20473;-75
2022/10/05 04:16:42;;;;;;;5.97;4.82;;;14.80;99.90;;;;;;4998632;28;20048;-74
2022/10/05 04:19:26;;;;;;;9.30;5.95;;;14.80;99.90;;;;;;4997194;28;20499;-74
2022/10/05 04:22:13;;;;;;;7.13;4.72;;;14.80;99.90;;;;;;4998822;28;20428;-74
2022/10/05 04:24:46;;;;;;;8.23;5.60;;;14.80;99.90;;;;;;4998336;28;20037;-75
2022/10/05 04:27:33;;;;;;;7.85;5.88;;;14.80;99.90;;;;;;5012927;28;20049;-75
2022/10/05 04:30:17;;;;;;;6.30;3.97;;;14.80;99.90;;;;;;5014497;28;20042;-75
2022/10/05 04:32:51;;;;;;;7.10;5.38;;;14.80;99.90;;;;;;4982336;28;20030;-73
2022/10/05 04:35:31;;;;;;;5.05;4.03;;;14.80;99.90;;;;;;4991676;28;20057;-75
2022/10/05 04:38:33;;;;;;;6.68;4.30;;;14.80;99.90;;;;;;4996150;28;20511;-74
2022/10/05 04:41:27;;;;;;;9.15;4.72;;;14.90;99.90;;;;;;5002562;28;20037;-75
2022/10/05 04:44:06;;;;;;;7.85;4.97;;;14.80;99.90;;;;;;4988702;28;20072;-75
2022/10/05 04:46:50;;;;;;;5.53;4.03;;;14.90;99.90;;;;;;4999995;28;20053;-75
2022/10/05 04:49:38;;;;;;;7.28;5.30;;;14.80;99.90;;;;;;4996936;28;20034;-75
2022/10/05 04:52:12;;;;;;;5.70;4.30;;;14.80;99.90;;;;;;4998636;28;20042;-75
2022/10/05 04:54:45;;;;;;;6.97;4.80;;;14.90;99.90;;;;;;5014646;28;20511;-75
2022/10/05 04:57:22;;;;;;;7.03;4.75;;;14.90;99.90;;;;;;4997499;28;20065;-74
2022/10/05 04:59:48;;;;;;;5.20;3.10;;;14.90;99.90;;;;;;5013601;28;20548;-75
2022/10/05 05:02:40;;;;;;;4.97;3.72;;;14.90;99.90;;;;;;4998172;28;20045;-74
2022/10/05 05:05:25;;;;;;;5.38;4.07;;;14.90;99.90;;;;;;4980640;28;20038;-74
2022/10/05 05:08:02;;;;;;;5.20;4.65;;;14.90;99.90;;;;;;5008588;28;20049;-72
2022/10/05 05:10:38;;;;;;;6.93;4.43;;;14.90;99.90;;;;;;5011287;28;20041;-75
2022/10/05 05:13:18;;;;;;;7.85;5.00;;;14.90;99.90;;;;;;5010793;28;20049;-72
2022/10/05 05:15:53;;;;;;;6.90;4.50;;;14.90;99.90;;;;;;4995801;28;20044;-75
2022/10/05 05:18:56;;;;;;;4.80;3.83;;;14.90;99.90;;;;;;5011446;28;20034;-75
2022/10/05 05:21:30;;;;;;;6.55;4.10;;;14.90;99.90;;;;;;4984937;28;20045;-75
2022/10/05 05:24:00;;;;;;;4.55;3.75;;;14.90;99.90;;;;;;5003286;28;20046;-75
2022/10/05 05:26:58;;;;;;;6.35;4.40;;;14.90;99.90;;;;;;5018493;28;20171;-76
2022/10/05 05:29:36;;;;;;;4.80;3.90;;;14.90;99.90;;;;;;5017478;28;20045;-75
2022/10/05 05:32:12;;;;;;;4.75;3.63;;;14.90;99.90;;;;;;4990614;28;20038;-75
2022/10/05 05:35:09;;;;;;;5.35;3.20;;;14.90;99.90;;;;;;5004182;28;20053;-74
2022/10/05 05:37:47;;;;;;;5.32;4.07;;;14.90;99.90;;;;;;5016830;28;20038;-75
2022/10/05 05:40:22;;;;;;;6.22;3.97;;;14.90;99.90;;;;;;4982298;28;20045;-74
2022/10/05 05:43:07;;;;;;;7.25;4.65;;;14.90;99.90;;;;;;5000404;28;20496;-74
2022/10/05 05:46:21;;;;;;;6.95;5.30;;;14.90;99.90;;;;;;5003900;28;20045;-74
2022/10/05 05:48:50;;;;;;;5.57;3.83;;;14.90;99.90;;;;;;4931620;28;20528;-75
2022/10/05 05:51:33;;;;;;;4.30;3.72;;;14.80;99.90;;;;;;5013725;28;20038;-74
2022/10/05 05:54:12;;;;;;;;;;;14.90;99.90;;;;;;5004129;28;20046;-75
2022/10/05 05:56:43;;;;;;;9.32;5.53;;;14.80;99.90;;;;;;5003809;28;19917;-75
2022/10/05 05:59:24;;;;;;;6.35;5.25;;;14.80;99.90;;;;;;5000546;28;20401;-74
2022/10/05 06:01:57;;;;;;;6.38;4.40;;;14.80;99.90;;;;;;5018387;28;20053;-74
2022/10/05 06:04:34;;;;;;;7.15;4.50;;;14.80;99.90;;;;;;5001055;28;20045;-75
2022/10/05 06:07:03;;;;;;;5.85;4.13;;;14.80;99.90;;;;;;4986512;28;20417;-74
2022/10/05 06:09:40;;;;;;;6.07;4.75;;;14.80;99.90;;;;;;4986272;28;20045;-74
2022/10/05 06:12:40;;;;;;;5.97;5.30;;;14.80;99.90;;;;;;4999769;28;20460;-74
2022/10/05 06:15:37;;;;;;;6.03;5.38;;;14.80;99.90;;;;;;4998736;28;20049;-74
2022/10/05 06:18:10;;;;;;;6.65;5.45;;;14.80;99.90;;;;;;5002675;28;20410;-74
2022/10/05 06:20:52;;;;;;;5.95;4.95;;;14.80;99.90;;;;;;5000538;28;20985;-74
2022/10/05 06:23:53;;;;;;;4.47;3.13;;;14.80;99.90;;;;;;5000200;28;20586;-75
2022/10/05 06:26:33;;;;;;;6.40;4.10;;;14.80;99.90;;;;;;5000670;28;20490;-75
2022/10/05 06:29:04;;;;;;;6.95;3.53;;;14.80;99.90;;;;;;4983850;28;20046;-75
2022/10/05 06:31:58;;;;;;;5.32;4.05;;;14.90;99.90;;;;;;4984533;28;20353;-74
2022/10/05 06:34:40;;;;;;;5.60;3.45;;;14.80;99.90;;;;;;5000192;28;20756;-75
2022/10/05 06:37:21;;;;;;;5.45;3.65;;;14.90;99.90;;;;;;5015785;28;20508;-74
2022/10/05 06:39:55;;;;;;;5.25;3.38;;;14.90;99.90;;;;;;4998745;28;20038;-74
2022/10/05 06:42:59;;;;;;;2.90;2.60;;;14.90;99.90;;;;;;5017116;28;20038;-74
2022/10/05 06:45:52;;;;;;;3.63;3.03;;;14.90;99.90;;;;;;5015824;28;20060;-74
2022/10/05 06:48:29;;;;;;;4.68;4.00;;;14.90;99.90;;;;;;4998942;28;20530;-74
2022/10/05 06:51:44;;;;;;;5.40;3.00;;;14.90;99.90;;;;;;4983306;28;20053;-75
2022/10/05 06:54:46;;;;;;;4.05;2.83;;;14.90;99.90;;;;;;5000222;28;20068;-75
2022/10/05 06:57:51;;;;;;;4.32;3.20;;;15.00;99.90;;;;;;4994237;28;20053;-75
2022/10/05 07:00:26;;;;;;;4.25;3.72;;;15.00;99.90;;;;;;4998319;28;20034;-74
2022/10/05 07:03:23;;;;;;;3.90;2.63;;;15.00;99.90;;;;;;4999935;28;20064;-75
2022/10/05 07:05:53;;;;;;;4.45;3.50;;;15.00;99.90;;;;;;4961546;28;20077;-75
2022/10/05 07:08:28;;;;;;;5.13;3.95;;;15.00;99.90;;;;;;5000316;28;20475;-75
2022/10/05 07:11:05;;;;;;;2.92;2.13;;;15.10;99.90;;;;;;4999646;28;20049;-74
2022/10/05 07:13:50;;;;;;;5.68;3.65;;;15.10;99.90;;;;;;5000782;28;20044;-74
2022/10/05 07:16:37;;;;;;;4.90;2.55;;;15.10;99.90;;;;;;4983151;28;20052;-74
2022/10/05 07:19:40;;;;;;;4.55;2.67;;;15.20;99.90;;;;;;4998627;28;20038;-74
2022/10/05 07:22:27;;;;;;;3.05;2.22;;;15.20;99.90;;;;;;4982674;28;20057;-74
2022/10/05 07:25:04;;;;;;;2.97;2.13;;;15.20;99.90;;;;;;5004093;28;20038;-74
2022/10/05 07:27:36;;;;;;;2.08;1.67;;;15.30;99.90;;;;;;5015141;28;20041;-74
2022/10/05 07:30:06;;;;;;;3.30;3.00;;;15.30;99.90;;;;;;4999610;28;20038;-75
2022/10/05 07:32:59;;;;;;;3.08;2.35;;;15.30;99.90;;;;;;5001536;28;20389;-74
2022/10/05 07:38:53;;;;;;;4.40;3.08;;;15.40;99.90;;;;;;4981297;28;20050;-74
2022/10/05 07:41:46;;;;;;;4.65;3.10;;;15.40;99.90;;;;;;4982266;28;20037;-75
2022/10/05 07:44:36;;;;;;;4.15;2.88;;;15.50;99.90;;;;;;4982362;28;20497;-74
2022/10/05 07:47:07;;;;;;;3.15;2.42;;;15.50;99.90;;;;;;4966792;28;20053;-74
2022/10/05 07:49:53;;;;;;;4.60;3.10;;;15.60;99.90;;;;;;5014492;28;20497;-74
2022/10/05 07:52:32;;;;;;;3.08;2.03;;;15.60;99.90;;;;;;4997643;28;20049;-74
2022/10/05 07:55:06;;;;;;;4.07;2.45;;;15.60;99.90;;;;;;5015597;28;20540;-75
2022/10/05 07:58:18;;;;;;;3.70;2.70;;;15.70;99.90;;;;;;4982517;28;20037;-74
2022/10/05 08:01:06;;;;;;;4.15;2.92;;;15.70;99.90;;;;;;4999724;28;20381;-74
2022/10/05 08:03:40;;;;;;;5.55;2.38;;;15.80;99.90;;;;;;4985502;28;20517;-74
2022/10/05 08:06:13;;;;;;;4.03;3.05;;;15.80;99.90;;;;;;5003794;28;20041;-74
2022/10/05 08:08:42;;;;;;;5.35;2.92;;;15.80;99.90;;;;;;4996949;28;20053;-74
2022/10/05 08:11:20;;;;;;;3.33;2.05;;;15.80;99.90;;;;;;4967016;28;20497;-74
2022/10/05 08:14:34;;;;;;;5.30;2.38;;;15.80;99.90;;;;;;5000152;28;20542;-74
2022/10/05 08:17:09;;;;;;;3.20;2.42;;;15.80;99.90;;;;;;4958004;28;20035;-74
2022/10/05 08:19:45;;;;;;;2.85;2.08;;;15.80;99.90;;;;;;4958208;28;20449;-75
2022/10/05 08:22:23;;;;;;;3.42;2.47;;;15.80;99.90;;;;;;4978884;28;20489;-74
2022/10/05 08:25:03;;;;;;;2.95;1.83;;;15.90;99.90;;;;;;5013105;28;20404;-74
2022/10/05 08:27:55;;;;;;;4.18;2.30;;;15.90;99.90;;;;;;4996977;28;20049;-74
2022/10/05 08:30:22;;;;;;;4.38;2.05;;;16.00;99.90;;;;;;4998857;28;20052;-75
2022/10/05 08:33:17;;;;;;;3.78;1.88;;;16.00;99.90;;;;;;5000033;28;20038;-74
2022/10/05 08:35:50;;;;;;;3.92;1.77;;;16.10;99.90;;;;;;4997101;28;20061;-74
2022/10/05 08:38:23;;;;;;;2.67;1.45;;;16.20;99.90;;;;;;4997494;28;20042;-74
2022/10/05 08:41:04;;;;;;;4.20;1.40;;;16.30;99.90;;;;;;5000700;28;20045;-74
2022/10/05 08:43:53;;;;;;;2.33;1.00;;;16.30;99.90;;;;;;4982370;28;20404;-74
2022/10/05 08:46:38;;;;;;;2.60;1.50;;;16.40;99.90;;;;;;4997910;28;20048;-74
2022/10/05 08:49:52;;;;;;;2.28;1.23;;;16.50;99.90;;;;;;4998156;28;20049;-75
2022/10/05 08:52:35;;;;;;;3.58;0.98;;;16.60;99.90;;;;;;4948389;28;20050;-73
2022/10/05 08:55:27;;;;;;;6.07;1.30;;;16.70;99.90;;;;;;4997438;28;20046;-74
2022/10/05 08:58:30;;;;;;;3.67;1.10;;;16.90;99.90;;;;;;4997609;28;20041;-74
2022/10/05 09:01:02;;;;;;;3.05;1.13;;;17.00;99.90;;;;;;4995082;28;20053;-74
2022/10/05 09:03:54;;;;;;;3.50;1.30;;;17.00;99.90;;;;;;4998928;28;20050;-74
2022/10/05 09:06:23;;;;;;;2.85;0.90;;;17.10;99.90;;;;;;5001446;28;20048;-74
2022/10/05 09:09:07;;;;;;;4.55;1.08;;;17.20;99.90;;;;;;4995212;28;20057;-74
2022/10/05 09:11:37;;;;;;;2.15;1.10;;;17.30;99.90;;;;;;5015287;28;20104;-74
2022/10/05 09:14:12;;;;;;;2.58;1.27;;;17.40;99.90;;;;;;4998351;28;20033;-74
2022/10/05 09:16:50;;;;;;;2.97;1.45;;;17.40;99.90;;;;;;4966008;28;20045;-73
2022/10/05 09:19:41;;;;;;;4.28;2.33;;;17.50;99.90;;;;;;4999367;28;20036;-74
2022/10/05 09:22:39;;;;;;;3.40;1.50;;;17.70;99.90;;;;;;5000362;28;20034;-74
2022/10/05 09:25:17;;;;;;;3.08;1.80;;;17.80;99.90;;;;;;5000335;28;20041;-75
2022/10/05 09:28:03;;;;;;;1.80;1.10;;;17.90;99.90;;;;;;4998772;28;20046;-74
2022/10/05 09:30:41;;;;;;;5.25;1.50;;;18.10;99.90;;;;;;4999496;28;20042;-74
2022/10/05 09:33:24;;;;;;;1.80;0.82;;;18.10;99.90;;;;;;5000319;28;20042;-74
2022/10/05 09:36:12;;;;;;;5.30;1.13;;;18.20;99.90;;;;;;4997225;28;20045;-74
2022/10/05 09:39:09;;;;;;;3.83;1.90;;;18.30;99.90;;;;;;4996405;28;20038;-74
2022/10/05 09:42:15;;;;;;;4.40;1.20;;;18.40;99.90;;;;;;4998675;28;20049;-75
2022/10/05 09:45:15;;;;;;;3.92;1.83;;;18.50;99.90;;;;;;4997505;28;20046;-74
2022/10/05 09:48:00;;;;;;;4.32;1.88;;;18.50;99.90;;;;;;4998794;28;20049;-74
2022/10/05 09:50:47;;;;;;;6.38;1.75;;;18.50;99.90;;;;;;5005851;28;20493;-74
2022/10/05 09:53:45;;;;;;;2.30;1.10;;;18.50;99.90;;;;;;4998731;28;20025;-74
2022/10/05 09:56:23;;;;;;;4.25;2.28;;;18.60;99.90;;;;;;4981297;28;20034;-74
2022/10/05 09:59:28;;;;;;;3.08;1.98;;;18.70;99.90;;;;;;4994910;28;20048;-74
2022/10/05 10:02:26;;;;;;;3.17;1.70;;;18.80;99.90;;;;;;4998066;28;20050;-75
2022/10/05 10:05:22;;;;;;;4.57;1.85;;;18.90;99.90;;;;;;4997772;28;20042;-74
2022/10/05 10:07:57;;;;;;;2.60;0.80;;;19.00;99.90;;;;;;4950191;28;20062;-74
2022/10/05 10:11:01;;;;;;;3.58;2.05;;;19.00;99.90;;;;;;5001582;28;20512;-74
2022/10/05 10:13:52;;;;;;;2.22;1.08;;;19.10;99.90;;;;;;4986357;28;20084;-73
2022/10/05 10:16:22;;;;;;;3.20;1.27;;;19.20;99.90;;;;;;5016504;28;20366;-74
2022/10/05 10:19:15;;;;;;;2.78;1.17;;;19.30;99.90;;;;;;5000549;28;20038;-74
2022/10/05 10:22:41;;;;;;;1.60;0.80;;;19.30;99.90;;;;;;5002278;28;20034;-73
2022/10/05 10:25:37;;;;;;;5.25;1.65;;;19.40;99.90;;;;;;4956391;28;20065;-74
2022/10/05 10:28:41;;;;;;;2.63;0.80;;;19.50;99.90;;;;;;5000643;28;20041;-74
2022/10/05 10:31:22;;;;;;;3.42;1.30;;;19.50;99.90;;;;;;5019166;28;20045;-74
2022/10/05 10:34:07;;;;;;;2.58;0.85;;;19.80;99.90;;;;;;5014118;28;20030;-74
2022/10/05 10:36:50;;;;;;;2.95;1.00;;;20.00;99.90;;;;;;5001864;28;20038;-74
2022/10/05 10:39:37;;;;;;;1.80;0.80;;;20.20;99.90;;;;;;5001314;28;20034;-74
2022/10/05 10:42:24;;;;;;;1.90;0.77;;;20.30;99.90;;;;;;5002349;28;20048;-74
2022/10/05 10:45:29;;;;;;;3.78;0.75;;;20.40;99.90;;;;;;4998847;28;20042;-74
2022/10/05 10:48:22;;;;;;;1.63;0.82;;;20.30;99.90;;;;;;4987334;28;20046;-74
2022/10/05 10:50:57;;;;;;;3.05;0.98;;;20.20;99.90;;;;;;5001576;28;20034;-74
2022/10/05 10:54:02;;;;;;;2.92;1.08;;;20.10;99.90;;;;;;5001928;28;20516;-74
2022/10/05 10:56:52;;;;;;;2.35;1.05;;;19.90;99.90;;;;;;5001673;28;20504;-74
2022/10/05 10:59:30;;;;;;;3.70;0.90;;;19.90;99.90;;;;;;5016193;28;21097;-74
2022/10/05 11:02:36;;;;;;;5.18;0.98;;;19.90;99.90;;;;;;5001736;28;20057;-74
2022/10/05 11:05:42;;;;;;;4.00;0.90;;;19.90;99.90;;;;;;5001381;28;20496;-74
2022/10/05 11:08:33;;;;;;;1.92;0.70;;;20.00;99.90;;;;;;4999900;28;20038;-74
2022/10/05 11:11:02;;;;;;;2.47;0.80;;;20.00;99.90;;;;;;5000745;28;20041;-75
2022/10/05 11:14:11;;;;;;;3.50;1.00;;;20.00;99.90;;;;;;5015614;28;20038;-75
2022/10/05 11:17:14;;;;;;;2.25;1.00;;;20.00;99.90;;;;;;5001491;28;20045;-74
2022/10/05 11:20:13;;;;;;;3.85;0.70;;;19.90;99.90;;;;;;4999231;28;20037;-73
2022/10/05 11:22:50;;;;;;;2.47;0.93;;;19.90;99.90;;;;;;5016078;28;20049;-74
2022/10/05 11:25:47;;;;;;;3.00;0.90;;;19.90;99.90;;;;;;4999815;28;20460;-73
2022/10/05 11:28:40;;;;;;;3.15;0.70;;;19.90;99.90;;;;;;4999979;28;20053;-74
2022/10/05 11:31:44;;;;;;;2.88;0.70;;;19.90;99.90;;;;;;4999005;28;20042;-73
2022/10/05 11:34:41;;;;;;;3.80;1.00;;;20.00;99.90;;;;;;5015300;28;20046;-73
2022/10/05 11:37:30;;;;;;;7.00;0.80;;;20.00;99.90;;;;;;4999523;28;20468;-74
2022/10/05 11:40:36;;;;;;;2.25;0.80;;;20.10;99.90;;;;;;5003071;28;20046;-75
2022/10/05 11:43:02;;;;;;;1.83;0.70;;;20.20;99.90;;;;;;4975317;28;20050;-74
2022/10/05 11:45:47;;;;;;;4.00;0.82;;;20.20;99.90;;;;;;4999192;28;20047;-74
2022/10/05 11:48:21;;;;;;;2.92;0.90;;;20.30;99.90;;;;;;4997010;28;20050;-73
2022/10/05 11:51:10;;;;;;;2.63;0.95;;;20.50;99.90;;;;;;4998586;28;20044;-74
2022/10/05 11:53:44;;;;;;;1.67;0.70;;;20.60;99.90;;;;;;4999513;28;20297;-73
2022/10/05 11:56:30;;;;;;;3.00;1.00;;;20.60;99.90;;;;;;5000646;28;20381;-73
2022/10/05 11:59:34;;;;;;;3.15;1.00;;;20.60;99.90;;;;;;4997514;28;20040;-74
2022/10/05 12:03:02;;;;;;;2.70;0.80;;;20.60;99.90;;;;;;4998232;28;20428;-73
2022/10/05 12:05:52;;;;;;;2.88;0.90;;;20.90;99.90;;;;;;4938313;28;20049;-73
2022/10/05 12:08:41;;;;;;;3.35;0.65;;;21.00;99.90;;;;;;4937020;29;20047;-73
2022/10/05 12:11:16;;;;;;;2.20;0.70;;;21.00;99.90;;;;;;4968658;28;20057;-73
2022/10/05 12:13:47;;;;;;;0.90;0.50;;;21.00;99.90;;;;;;4998801;28;20052;-73
2022/10/05 12:16:27;;;;;;;3.30;0.75;;;20.90;99.90;;;;;;4998734;28;20489;-74
2022/10/05 12:19:16;;;;;;;1.70;0.75;;;21.10;99.90;;;;;;4996200;28;20037;-73
2022/10/05 12:21:53;;;;;;;3.10;0.90;;;21.40;99.90;;;;;;4998275;28;20033;-74
2022/10/05 12:24:35;;;;;;;5.47;1.20;;;21.70;99.90;;;;;;4999276;28;20038;-74
2022/10/05 12:27:12;;;;;;;2.13;1.00;;;22.00;99.90;;;;;;4996206;28;20045;-74
2022/10/05 12:29:49;;;;;;;2.00;0.70;;;22.10;99.90;;;;;;5000695;28;20049;-74
2022/10/05 12:32:28;;;;;;;2.28;0.95;;;22.20;99.90;;;;;;5000370;28;20022;-74
2022/10/05 12:35:25;;;;;;;3.00;0.85;;;22.10;99.90;;;;;;5013823;28;20034;-74
2022/10/05 12:38:00;;;;;;;2.60;0.80;;;22.30;99.90;;;;;;4996560;28;20583;-74
2022/10/05 12:40:54;;;;;;;2.17;0.60;;;22.40;99.90;;;;;;4996746;28;20045;-75
2022/10/05 12:43:54;;;;;;;3.20;0.80;;;22.50;99.90;;;;;;4999613;28;20033;-75
2022/10/05 12:46:48;;;;;;;5.55;1.25;;;22.60;99.90;;;;;;4996928;28;20038;-75
2022/10/05 12:49:36;;;;;;;3.78;1.10;;;22.70;99.90;;;;;;4980680;28;20038;-75
2022/10/05 12:52:17;;;;;;;2.28;0.70;;;22.70;99.90;;;;;;4999091;28;20037;-73
2022/10/05 12:55:14;;;;;;;3.50;0.90;;;22.50;99.90;;;;;;4999047;28;20026;-73
2022/10/05 12:58:04;;;;;;;2.67;0.90;;;22.30;99.90;;;;;;5010391;28;20049;-74
2022/10/05 13:00:38;;;;;;;1.55;0.70;;;22.30;99.90;;;;;;4998207;28;20481;-73
2022/10/05 13:03:16;;;;;;;2.42;0.77;;;22.30;99.90;;;;;;4997113;28;20057;-74
2022/10/05 13:05:53;;;;;;;2.30;0.80;;;22.20;99.90;;;;;;4996431;28;20037;-74
2022/10/05 13:08:25;;;;;;;2.90;0.70;;;22.30;99.90;;;;;;5000856;28;20053;-74
2022/10/05 13:11:01;;;;;;;;;;;22.40;99.90;;;;;;5013377;28;20034;-74
2022/10/05 13:13:41;;;;;;;2.55;0.50;;;22.30;99.90;;;;;;4981331;28;19925;-74
2022/10/05 13:16:49;;;;;;;2.67;0.60;;;22.30;99.90;;;;;;4997277;28;20837;-74
2022/10/05 13:19:38;;;;;;;1.35;0.85;;;22.10;99.90;;;;;;4969860;28;20038;-73
2022/10/05 13:22:32;;;;;;;1.30;0.60;;;22.00;99.90;;;;;;4997253;28;20042;-74
2022/10/05 13:25:22;;;;;;;3.05;0.50;;;21.90;99.90;;;;;;5012947;28;20133;-74
2022/10/05 13:28:08;;;;;;;2.22;0.50;;;21.80;99.90;;;;;;4997137;28;20076;-74
2022/10/05 13:30:36;;;;;;;1.80;0.70;;;21.90;99.90;;;;;;4998253;28;20069;-74
2022/10/05 13:33:29;;;;;;;2.55;0.68;;;21.80;99.90;;;;;;4994064;28;20378;-74
2022/10/05 13:36:28;;;;;;;1.73;0.52;;;21.80;99.90;;;;;;4998512;28;20038;-74
2022/10/05 13:39:08;;;;;;;1.13;0.50;;;21.70;99.90;;;;;;4997933;28;20045;-75
2022/10/05 13:42:13;;;;;;;2.42;0.40;;;21.70;99.90;;;;;;5000121;28;20049;-75
2022/10/05 13:44:52;;;;;;;2.13;0.50;;;21.70;99.90;;;;;;5000245;28;20056;-75
2022/10/05 13:47:51;;;;;;;2.10;0.63;;;21.70;99.90;;;;;;5000122;28;20057;-76
2022/10/05 13:50:33;;;;;;;3.20;0.70;;;21.80;99.90;;;;;;5000224;28;20041;-75
2022/10/05 13:53:14;;;;;;;0.77;0.40;;;21.80;99.90;;;;;;5001993;28;20040;-75
2022/10/05 13:56:07;;;;;;;2.72;0.70;;;21.90;99.90;;;;;;5001306;28;20461;-74
2022/10/05 13:58:36;;;;;;;;;;;21.90;99.90;;;;;;5000357;28;20045;-75
2022/10/05 14:01:13;;;;;;;3.25;0.60;;;21.90;99.90;;;;;;5003386;28;19961;-74
2022/10/05 14:03:39;;;;;;;2.53;0.75;;;21.90;99.90;;;;;;5002685;28;20480;-75
2022/10/05 14:06:26;;;;;;;2.97;0.50;;;22.00;99.90;;;;;;5001790;28;20048;-74
2022/10/05 14:08:52;;;;;;;1.58;0.40;;;21.90;99.90;;;;;;4999010;28;20531;-74
2022/10/05 14:11:33;;;;;;;1.40;0.50;;;21.80;99.90;;;;;;5002103;28;20045;-74
2022/10/05 14:14:09;;;;;;;1.65;0.47;;;21.80;99.90;;;;;;5000160;28;20037;-74
2022/10/05 14:16:54;;;;;;;1.10;0.40;;;21.70;99.90;;;;;;5015001;28;20053;-74